createdAt,value
2022-10-28T00:01:11.388Z,12.60
2022-10-28T00:03:41.089Z,12.60
2022-10-28T00:06:11.717Z,12.60
2022-10-28T00:08:40.235Z,12.60
2022-10-28T00:11:10.728Z,12.60
2022-10-28T00:13:39.556Z,12.60
2022-10-28T00:16:11.851Z,12.60
2022-10-28T00:18:40.666Z,12.60
2022-10-28T00:21:12.530Z,12.70
2022-10-28T00:23:41.369Z,12.70
2022-10-28T00:26:11.009Z,12.70
2022-10-28T00:28:42.651Z,12.80
2022-10-28T00:31:14.152Z,12.80
2022-10-28T00:33:42.478Z,12.80
2022-10-28T00:36:15.718Z,12.90
2022-10-28T00:38:45.074Z,12.80
2022-10-28T00:41:15.278Z,12.90
2022-10-28T00:43:45.019Z,12.90
2022-10-28T00:46:20.837Z,12.90
2022-10-28T00:48:52.055Z,12.90
2022-10-28T00:51:23.927Z,12.90
2022-10-28T00:53:54.264Z,12.80
2022-10-28T00:56:23.597Z,12.80
2022-10-28T00:58:52.774Z,12.80
2022-10-28T01:01:22.429Z,12.70
2022-10-28T01:03:50.616Z,12.80
2022-10-28T01:06:18.688Z,12.70
2022-10-28T01:08:46.743Z,12.70
2022-10-28T01:11:35.746Z,12.70
2022-10-28T01:14:17.424Z,12.70
2022-10-28T01:16:59.052Z,12.70
2022-10-28T01:19:51.728Z,12.70
2022-10-28T01:22:24.527Z,12.70
2022-10-28T01:25:12.277Z,12.60
2022-10-28T01:28:10.021Z,12.60
2022-10-28T01:31:00.999Z,12.50
2022-10-28T01:33:35.265Z,12.50
2022-10-28T01:36:09.959Z,12.50
2022-10-28T01:38:48.379Z,12.40
2022-10-28T01:41:19.812Z,12.40
2022-10-28T01:43:53.439Z,12.40
2022-10-28T01:46:29.452Z,12.40
2022-10-28T01:49:01.292Z,12.40
2022-10-28T01:51:33.454Z,12.30
2022-10-28T01:54:04.832Z,12.40
2022-10-28T01:56:37.140Z,12.40
2022-10-28T01:59:08.961Z,12.40
2022-10-28T02:01:38.692Z,12.40
2022-10-28T02:04:06.975Z,12.40
2022-10-28T02:06:35.888Z,12.30
2022-10-28T02:09:23.234Z,12.30
2022-10-28T02:12:16.396Z,12.40
2022-10-28T02:15:18.573Z,12.40
2022-10-28T02:18:03.132Z,12.40
2022-10-28T02:20:38.832Z,12.50
2022-10-28T02:23:18.194Z,12.50
2022-10-28T02:25:52.558Z,12.50
2022-10-28T02:28:26.064Z,12.60
2022-10-28T02:31:00.308Z,12.60
2022-10-28T02:33:33.541Z,12.60
2022-10-28T02:36:05.776Z,12.60
2022-10-28T02:38:37.142Z,12.70
2022-10-28T02:41:10.077Z,12.80
2022-10-28T02:43:39.302Z,12.90
2022-10-28T02:46:09.449Z,12.90
2022-10-28T02:48:44.001Z,13.00
2022-10-28T02:51:15.053Z,13.10
2022-10-28T02:53:51.576Z,13.10
2022-10-28T02:56:22.376Z,13.20
2022-10-28T02:58:50.636Z,13.10
2022-10-28T03:01:19.089Z,13.10
2022-10-28T03:03:48.724Z,13.10
2022-10-28T03:06:16.830Z,13.00
2022-10-28T03:08:44.926Z,13.00
2022-10-28T03:11:13.039Z,12.90
2022-10-28T03:13:41.084Z,12.90
2022-10-28T03:16:09.304Z,13.00
2022-10-28T03:18:37.486Z,13.10
2022-10-28T03:21:07.130Z,13.20
2022-10-28T03:23:35.429Z,13.30
2022-10-28T03:26:03.523Z,13.30
2022-10-28T03:28:31.590Z,13.30
2022-10-28T03:30:59.659Z,13.30
2022-10-28T03:33:27.768Z,13.20
2022-10-28T03:35:55.923Z,13.30
2022-10-28T03:38:25.430Z,13.30
2022-10-28T03:40:53.507Z,13.30
2022-10-28T03:43:21.556Z,13.30
2022-10-28T03:45:49.866Z,13.40
2022-10-28T03:48:17.946Z,13.40
2022-10-28T03:50:46.034Z,13.40
2022-10-28T03:53:14.080Z,13.40
2022-10-28T03:55:43.526Z,13.40
2022-10-28T03:58:11.561Z,13.40
2022-10-28T04:00:39.665Z,13.40
2022-10-28T04:03:07.717Z,13.40
2022-10-28T04:05:35.819Z,13.40
2022-10-28T04:08:03.896Z,13.40
2022-10-28T04:10:31.953Z,13.40
2022-10-28T04:13:02.790Z,13.50
2022-10-28T04:15:31.043Z,13.50
2022-10-28T04:17:59.171Z,13.50
2022-10-28T04:20:27.932Z,13.50
2022-10-28T04:22:57.230Z,13.50
2022-10-28T04:25:27.184Z,13.50
2022-10-28T04:27:55.983Z,13.50
2022-10-28T04:30:25.981Z,13.50
2022-10-28T04:32:54.076Z,13.50
2022-10-28T04:35:22.153Z,13.50
2022-10-28T04:37:51.871Z,13.40
2022-10-28T04:40:20.359Z,13.40
2022-10-28T04:42:48.446Z,13.40
2022-10-28T04:45:16.764Z,13.40
2022-10-28T04:47:46.271Z,13.40
2022-10-28T04:50:14.364Z,13.30
2022-10-28T04:52:42.432Z,13.30
2022-10-28T04:55:10.837Z,13.20
2022-10-28T04:57:38.923Z,13.20
2022-10-28T05:00:08.048Z,13.20
2022-10-28T05:02:36.124Z,13.10
2022-10-28T05:05:06.102Z,13.10
2022-10-28T05:07:34.203Z,13.10
2022-10-28T05:10:02.251Z,13.10
2022-10-28T05:12:30.364Z,13.00
2022-10-28T05:14:58.420Z,12.90
2022-10-28T05:17:26.601Z,12.90
2022-10-28T05:19:54.685Z,12.90
2022-10-28T05:22:24.131Z,12.80
2022-10-28T05:24:52.175Z,12.80
2022-10-28T05:27:20.269Z,12.70
2022-10-28T05:29:48.310Z,12.70
2022-10-28T05:32:16.383Z,12.80
2022-10-28T05:34:44.422Z,12.70
2022-10-28T05:37:12.796Z,12.80
2022-10-28T05:39:42.244Z,12.80
2022-10-28T05:42:10.440Z,12.90
2022-10-28T05:44:38.514Z,12.90
2022-10-28T05:47:06.672Z,13.00
2022-10-28T05:49:34.730Z,12.90
2022-10-28T05:52:02.829Z,12.90
2022-10-28T05:54:30.988Z,12.90
2022-10-28T05:57:00.527Z,12.90
2022-10-28T05:59:28.599Z,12.90
2022-10-28T06:01:56.766Z,12.90
2022-10-28T06:04:25.041Z,12.90
2022-10-28T06:06:55.915Z,12.90
2022-10-28T06:09:24.013Z,12.90
2022-10-28T06:11:50.560Z,12.80
2022-10-28T06:14:19.994Z,12.80
2022-10-28T06:16:48.096Z,12.80
2022-10-28T06:19:16.219Z,12.80
2022-10-28T06:21:44.772Z,12.80
2022-10-28T06:24:12.844Z,12.80
2022-10-28T06:26:41.126Z,12.80
2022-10-28T06:29:10.507Z,12.80
2022-10-28T06:31:40.620Z,12.70
2022-10-28T06:34:09.074Z,12.60
2022-10-28T06:36:37.398Z,12.60
2022-10-28T06:39:06.011Z,12.60
2022-10-28T06:41:34.371Z,12.60
2022-10-28T06:44:02.608Z,12.60
2022-10-28T06:46:31.076Z,12.60
2022-10-28T06:49:03.221Z,12.60
2022-10-28T06:51:31.937Z,12.70
2022-10-28T06:54:00.375Z,12.80
2022-10-28T06:56:28.473Z,12.90
2022-10-28T06:58:56.594Z,13.00
2022-10-28T07:01:24.777Z,13.00
2022-10-28T07:03:52.879Z,13.10
2022-10-28T07:06:22.343Z,13.10
2022-10-28T07:08:50.414Z,13.20
2022-10-28T07:11:19.090Z,13.20
2022-10-28T07:13:48.953Z,13.10
2022-10-28T07:16:17.264Z,13.10
2022-10-28T07:18:45.443Z,13.10
2022-10-28T07:21:14.363Z,13.10
2022-10-28T07:23:43.840Z,13.10
2022-10-28T07:26:11.917Z,13.10
2022-10-28T07:28:40.018Z,13.10
2022-10-28T07:31:08.363Z,13.10
2022-10-28T07:33:36.525Z,13.20
2022-10-28T07:36:05.938Z,13.40
2022-10-28T07:38:34.595Z,13.50
2022-10-28T07:41:07.394Z,13.60
2022-10-28T07:43:37.549Z,13.70
2022-10-28T07:46:06.614Z,13.80
2022-10-28T07:48:34.903Z,14.00
2022-10-28T07:51:04.207Z,14.10
2022-10-28T07:53:32.843Z,14.30
2022-10-28T07:56:02.987Z,14.40
2022-10-28T07:58:32.557Z,14.40
2022-10-28T08:01:04.086Z,14.50
2022-10-28T08:03:38.664Z,14.60
2022-10-28T08:06:09.473Z,14.70
2022-10-28T08:08:38.370Z,14.90
2022-10-28T08:11:13.350Z,15.00
2022-10-28T08:13:43.374Z,15.10
2022-10-28T08:16:11.486Z,15.20
2022-10-28T08:18:40.463Z,15.30
2022-10-28T08:21:11.377Z,15.30
2022-10-28T08:23:41.466Z,15.30
2022-10-28T08:26:09.636Z,15.30
2022-10-28T08:28:37.721Z,15.40
2022-10-28T08:31:09.520Z,15.50
2022-10-28T08:33:39.106Z,15.50
2022-10-28T08:36:08.173Z,15.60
2022-10-28T08:38:36.268Z,15.60
2022-10-28T08:41:13.796Z,15.70
2022-10-28T08:43:57.731Z,15.80
2022-10-28T08:46:44.326Z,15.90
2022-10-28T08:49:14.757Z,16.00
2022-10-28T08:51:49.396Z,16.00
2022-10-28T08:54:21.065Z,16.10
2022-10-28T08:56:50.896Z,16.10
2022-10-28T08:59:23.022Z,16.20
2022-10-28T09:04:36.970Z,16.30
2022-10-28T09:07:05.816Z,16.30
2022-10-28T09:09:34.517Z,16.50
2022-10-28T09:12:13.649Z,16.50
2022-10-28T09:14:55.072Z,16.60
2022-10-28T09:17:34.165Z,16.70
2022-10-28T09:20:08.483Z,16.80
2022-10-28T09:22:44.964Z,16.90
2022-10-28T09:25:23.706Z,17.00
2022-10-28T09:28:02.330Z,17.00
2022-10-28T09:30:37.232Z,17.00
2022-10-28T09:33:28.372Z,17.10
2022-10-28T09:35:58.420Z,17.20
2022-10-28T09:38:29.759Z,17.30
2022-10-28T09:41:02.699Z,17.20
2022-10-28T09:43:34.057Z,17.30
2022-10-28T09:46:07.360Z,17.30
2022-10-28T09:48:40.021Z,17.30
2022-10-28T09:51:08.468Z,17.40
2022-10-28T09:53:43.917Z,17.60
2022-10-28T09:56:12.278Z,17.60
2022-10-28T09:58:44.612Z,17.70
2022-10-28T10:01:12.709Z,17.90
2022-10-28T10:03:42.264Z,18.00
2022-10-28T10:06:15.478Z,18.00
2022-10-28T10:08:44.654Z,18.10
2022-10-28T10:11:22.094Z,18.10
2022-10-28T10:13:51.357Z,18.20
2022-10-28T10:16:24.974Z,18.20
2022-10-28T10:18:58.814Z,18.30
2022-10-28T10:21:43.362Z,18.30
2022-10-28T10:24:25.896Z,18.30
2022-10-28T10:26:54.695Z,18.30
2022-10-28T10:29:23.477Z,18.40
2022-10-28T10:32:17.055Z,18.40
2022-10-28T10:34:52.385Z,18.40
2022-10-28T10:37:22.982Z,18.50
2022-10-28T10:40:04.116Z,18.50
2022-10-28T10:42:32.202Z,18.60
2022-10-28T10:45:02.864Z,18.60
2022-10-28T10:47:31.135Z,18.70
2022-10-28T10:50:24.151Z,18.80
2022-10-28T10:52:57.856Z,18.90
2022-10-28T10:55:34.890Z,19.00
2022-10-28T10:58:03.681Z,19.00
2022-10-28T11:00:36.612Z,19.00
2022-10-28T11:03:07.116Z,19.00
2022-10-28T11:05:38.558Z,19.00
2022-10-28T11:08:07.771Z,18.90
2022-10-28T11:10:36.434Z,18.90
2022-10-28T11:13:07.218Z,18.80
2022-10-28T11:15:35.311Z,18.80
2022-10-28T11:18:05.590Z,18.70
2022-10-28T11:20:47.112Z,18.80
2022-10-28T11:23:38.105Z,18.80
2022-10-28T11:26:10.679Z,18.80
2022-10-28T11:28:57.603Z,18.80
2022-10-28T11:31:47.703Z,18.80
2022-10-28T11:34:30.373Z,18.80
2022-10-28T11:37:09.994Z,18.90
2022-10-28T11:39:46.059Z,19.00
2022-10-28T11:42:24.891Z,19.00
2022-10-28T11:44:56.525Z,19.10
2022-10-28T11:47:45.268Z,19.10
2022-10-28T11:50:29.996Z,19.10
2022-10-28T11:53:25.007Z,19.20
2022-10-28T11:55:57.613Z,19.10
2022-10-28T11:58:34.800Z,19.20
2022-10-28T12:01:19.908Z,19.20
2022-10-28T12:04:05.172Z,19.10
2022-10-28T12:06:51.935Z,19.10
2022-10-28T12:09:29.931Z,19.20
2022-10-28T12:12:13.622Z,19.20
2022-10-28T12:14:50.675Z,19.20
2022-10-28T12:17:26.320Z,19.20
2022-10-28T12:19:59.492Z,19.20
2022-10-28T12:22:31.602Z,19.20
2022-10-28T12:25:08.234Z,19.20
2022-10-28T12:27:41.587Z,19.20
2022-10-28T12:30:21.026Z,19.20
2022-10-28T12:32:52.872Z,19.30
2022-10-28T12:35:25.169Z,19.30
2022-10-28T12:37:58.803Z,19.20
2022-10-28T12:40:32.522Z,19.20
2022-10-28T12:43:06.686Z,19.10
2022-10-28T12:45:34.971Z,19.10
2022-10-28T12:48:12.070Z,19.10
2022-10-28T12:50:47.538Z,19.00
2022-10-28T12:53:28.882Z,19.00
2022-10-28T12:56:01.574Z,19.00
2022-10-28T12:58:35.283Z,19.00
2022-10-28T13:01:08.314Z,19.00
2022-10-28T13:03:37.436Z,19.00
2022-10-28T13:06:31.573Z,19.00
2022-10-28T13:09:22.459Z,19.00
2022-10-28T13:12:28.976Z,19.00
2022-10-28T13:15:30.810Z,19.00
2022-10-28T13:18:22.464Z,19.10
2022-10-28T13:21:01.318Z,19.10
2022-10-28T13:23:40.921Z,19.10
2022-10-28T13:26:22.741Z,19.20
2022-10-28T13:28:54.417Z,19.20
2022-10-28T13:31:24.550Z,19.20
2022-10-28T13:33:56.868Z,19.20
2022-10-28T13:36:28.275Z,19.10
2022-10-28T13:38:59.862Z,19.10
2022-10-28T13:41:31.669Z,19.00
2022-10-28T13:44:32.787Z,19.00
2022-10-28T13:47:27.206Z,19.00
2022-10-28T13:50:21.717Z,19.00
2022-10-28T13:53:45.296Z,18.90
2022-10-28T13:56:29.080Z,19.00
2022-10-28T13:59:00.416Z,19.00
2022-10-28T14:02:01.702Z,19.00
2022-10-28T14:04:41.061Z,19.00
2022-10-28T14:07:21.982Z,19.00
2022-10-28T14:09:53.644Z,19.00
2022-10-28T14:12:31.695Z,19.00
2022-10-28T14:15:08.175Z,18.90
2022-10-28T14:17:39.121Z,18.90
2022-10-28T14:20:22.297Z,18.90
2022-10-28T14:22:51.191Z,18.80
2022-10-28T14:25:56.266Z,18.80
2022-10-28T14:28:56.822Z,18.80
2022-10-28T14:31:45.192Z,18.70
2022-10-28T14:34:42.431Z,18.70
2022-10-28T14:37:54.064Z,18.60
2022-10-28T14:40:43.202Z,18.60
2022-10-28T14:43:40.699Z,18.60
2022-10-28T14:46:27.772Z,18.50
2022-10-28T14:48:57.096Z,18.50
2022-10-28T14:51:27.307Z,18.40
2022-10-28T14:53:58.752Z,18.40
2022-10-28T14:56:28.985Z,18.30
2022-10-28T14:59:01.543Z,18.30
2022-10-28T15:01:38.971Z,18.30
2022-10-28T15:04:13.333Z,18.20
2022-10-28T15:06:43.656Z,18.20
2022-10-28T15:09:21.518Z,18.10
2022-10-28T15:11:52.920Z,18.10
2022-10-28T15:14:33.957Z,18.00
2022-10-28T15:17:16.185Z,18.00
2022-10-28T15:19:45.028Z,17.90
2022-10-28T15:22:19.179Z,17.90
2022-10-28T15:24:58.472Z,17.80
2022-10-28T15:27:28.841Z,17.80
2022-10-28T15:29:57.958Z,17.70
2022-10-28T15:32:30.615Z,17.70
2022-10-28T15:34:59.048Z,17.70
2022-10-28T15:37:30.009Z,17.60
2022-10-28T15:40:22.035Z,17.60
2022-10-28T15:42:58.145Z,17.50
2022-10-28T15:45:28.009Z,17.50
2022-10-28T15:47:58.535Z,17.40
2022-10-28T15:50:30.261Z,17.40
2022-10-28T15:53:31.508Z,17.40
2022-10-28T15:56:17.959Z,17.40
2022-10-28T15:58:47.365Z,17.30
2022-10-28T16:01:38.224Z,17.30
2022-10-28T16:04:30.978Z,17.20
2022-10-28T16:07:00.011Z,17.10
2022-10-28T16:09:32.222Z,17.10
2022-10-28T16:12:03.856Z,17.00
2022-10-28T16:14:37.596Z,17.00
2022-10-28T16:17:15.513Z,16.90
2022-10-28T16:19:50.761Z,16.90
2022-10-28T16:22:19.546Z,16.80
2022-10-28T16:24:48.224Z,16.80
2022-10-28T16:27:21.563Z,16.70
2022-10-28T16:29:50.013Z,16.70
2022-10-28T16:32:20.845Z,16.70
2022-10-28T16:34:50.361Z,16.70
2022-10-28T16:37:23.573Z,16.70
2022-10-28T16:39:51.799Z,16.60
2022-10-28T16:42:21.129Z,16.60
2022-10-28T16:44:49.697Z,16.50
2022-10-28T16:47:19.716Z,16.50
2022-10-28T16:49:54.111Z,16.50
2022-10-28T16:52:28.003Z,16.50
2022-10-28T16:54:56.337Z,16.40
2022-10-28T16:59:57.548Z,16.30
2022-10-28T17:02:28.622Z,16.30
2022-10-28T17:04:58.954Z,16.30
2022-10-28T17:07:27.696Z,16.20
2022-10-28T17:09:56.863Z,16.20
2022-10-28T17:12:26.905Z,16.20
2022-10-28T17:14:55.040Z,16.10
2022-10-28T17:17:23.152Z,16.00
2022-10-28T17:19:51.212Z,16.00
2022-10-28T17:22:20.673Z,15.90
2022-10-28T17:24:48.772Z,15.90
2022-10-28T17:27:17.014Z,15.80
2022-10-28T17:29:45.145Z,15.80
2022-10-28T17:32:13.332Z,15.70
2022-10-28T17:34:41.439Z,15.70
2022-10-28T17:37:10.468Z,15.60
2022-10-28T17:39:40.020Z,15.60
2022-10-28T17:42:08.112Z,15.50
2022-10-28T17:44:36.658Z,15.40
2022-10-28T17:47:04.894Z,15.40
2022-10-28T17:49:34.358Z,15.40
2022-10-28T17:52:02.484Z,15.40
2022-10-28T17:54:30.582Z,15.40
2022-10-28T17:57:00.043Z,15.40
2022-10-28T17:59:28.167Z,15.40
2022-10-28T18:01:56.417Z,15.30
2022-10-28T18:04:26.542Z,15.30
2022-10-28T18:06:55.624Z,15.30
2022-10-28T18:09:23.921Z,15.20
2022-10-28T18:11:52.243Z,15.20
2022-10-28T18:14:21.935Z,15.20
2022-10-28T18:16:51.287Z,15.10
2022-10-28T18:19:19.404Z,15.10
2022-10-28T18:21:47.543Z,15.10
2022-10-28T18:24:15.964Z,15.10
2022-10-28T18:26:44.014Z,15.10
2022-10-28T18:29:13.230Z,15.00
2022-10-28T18:31:44.399Z,15.00
2022-10-28T18:34:12.963Z,15.00
2022-10-28T18:36:41.097Z,15.00
2022-10-28T18:39:09.804Z,15.00
2022-10-28T18:41:42.922Z,14.90
2022-10-28T18:44:14.215Z,14.90
2022-10-28T18:46:45.304Z,14.80
2022-10-28T18:49:13.483Z,14.80
2022-10-28T18:51:41.732Z,14.80
2022-10-28T18:54:09.998Z,14.80
2022-10-28T18:56:38.547Z,14.70
2022-10-28T18:59:06.734Z,14.70
2022-10-28T19:01:35.834Z,14.70
2022-10-28T19:04:06.323Z,14.70
2022-10-28T19:06:35.278Z,14.70
2022-10-28T19:09:05.221Z,14.60
2022-10-28T19:11:34.644Z,14.60
2022-10-28T19:14:04.229Z,14.50
2022-10-28T19:16:34.407Z,14.50
2022-10-28T19:19:05.979Z,14.40
2022-10-28T19:21:34.218Z,14.40
2022-10-28T19:24:02.483Z,14.30
2022-10-28T19:26:32.090Z,14.30
2022-10-28T19:29:00.373Z,14.30
2022-10-28T19:31:30.777Z,14.30
2022-10-28T19:33:59.136Z,14.30
2022-10-28T19:36:31.097Z,14.30
2022-10-28T19:38:59.784Z,14.30
2022-10-28T19:41:29.288Z,14.30
2022-10-28T19:43:59.286Z,14.30
2022-10-28T19:46:28.976Z,14.30
2022-10-28T19:48:59.115Z,14.30
2022-10-28T19:51:30.368Z,14.30
2022-10-28T19:53:59.888Z,14.20
2022-10-28T19:56:29.152Z,14.20
2022-10-28T19:58:59.304Z,14.20
2022-10-28T20:01:29.544Z,14.20
2022-10-28T20:03:58.961Z,14.20
2022-10-28T20:06:33.306Z,14.10
2022-10-28T20:09:01.723Z,14.10
2022-10-28T20:11:32.596Z,14.00
2022-10-28T20:14:02.263Z,14.00
2022-10-28T20:16:31.049Z,14.00
2022-10-28T20:18:59.692Z,14.10
2022-10-28T20:21:31.134Z,14.10
2022-10-28T20:23:59.486Z,14.20
2022-10-28T20:26:29.271Z,14.20
2022-10-28T20:28:58.482Z,14.20
2022-10-28T20:31:29.064Z,14.20
2022-10-28T20:33:58.845Z,14.30
2022-10-28T20:36:29.857Z,14.20
2022-10-28T20:38:59.717Z,14.20
2022-10-28T20:41:30.505Z,14.20
2022-10-28T20:43:58.907Z,14.30
2022-10-28T20:46:27.629Z,14.20
2022-10-28T20:48:56.669Z,14.30
2022-10-28T20:51:26.304Z,14.30
2022-10-28T20:53:56.234Z,14.30
2022-10-28T20:56:26.456Z,14.30
2022-10-28T20:58:55.643Z,14.30
2022-10-28T21:01:25.347Z,14.30
2022-10-28T21:03:55.367Z,14.20
2022-10-28T21:06:24.057Z,14.20
2022-10-28T21:08:53.525Z,14.10
2022-10-28T21:11:24.006Z,14.00
2022-10-28T21:13:53.767Z,14.00
2022-10-28T21:16:23.001Z,13.90
2022-10-28T21:18:51.737Z,13.90
2022-10-28T21:21:20.730Z,13.90
2022-10-28T21:23:48.821Z,13.90
2022-10-28T21:26:16.930Z,13.90
2022-10-28T21:28:50.381Z,13.80
2022-10-28T21:31:19.178Z,13.90
2022-10-28T21:36:22.919Z,13.80
2022-10-28T21:38:54.574Z,13.80
2022-10-28T21:41:23.487Z,13.80
2022-10-28T21:43:54.175Z,13.70
2022-10-28T21:46:25.179Z,13.70
2022-10-28T21:48:54.604Z,13.70
2022-10-28T21:51:22.756Z,13.70
2022-10-28T21:53:50.847Z,13.60
2022-10-28T21:56:21.047Z,13.70
2022-10-28T21:58:50.989Z,13.60
2022-10-28T22:01:22.874Z,13.60
2022-10-28T22:03:51.730Z,13.50
2022-10-28T22:06:19.873Z,13.50
2022-10-28T22:08:47.986Z,13.50
2022-10-28T22:11:18.092Z,13.50
2022-10-28T22:13:46.407Z,13.40
2022-10-28T22:16:16.378Z,13.50
2022-10-28T22:18:46.282Z,13.50
2022-10-28T22:21:16.668Z,13.40
2022-10-28T22:23:45.122Z,13.40
2022-10-28T22:26:16.002Z,13.40
2022-10-28T22:28:44.570Z,13.40
2022-10-28T22:31:14.446Z,13.30
2022-10-28T22:33:42.641Z,13.30
2022-10-28T22:36:13.941Z,13.30
2022-10-28T22:38:42.611Z,13.40
2022-10-28T22:41:14.184Z,13.40
2022-10-28T22:43:43.005Z,13.40
2022-10-28T22:46:11.965Z,13.40
2022-10-28T22:48:40.247Z,13.40
2022-10-28T22:51:09.658Z,13.40
2022-10-28T22:53:39.833Z,13.40
2022-10-28T22:56:08.812Z,13.40
2022-10-28T22:58:37.007Z,13.30
2022-10-28T23:01:09.573Z,13.30
2022-10-28T23:03:38.747Z,13.30
2022-10-28T23:06:07.467Z,13.30
2022-10-28T23:08:35.850Z,13.40
2022-10-28T23:11:05.943Z,13.40
2022-10-28T23:13:34.293Z,13.40
2022-10-28T23:16:06.163Z,13.40
2022-10-28T23:18:34.254Z,13.40
2022-10-28T23:21:07.126Z,13.40
2022-10-28T23:23:35.214Z,13.40
2022-10-28T23:26:05.164Z,13.30
2022-10-28T23:28:33.484Z,13.30
2022-10-28T23:31:02.146Z,13.30
2022-10-28T23:33:31.091Z,13.30
2022-10-28T23:36:00.966Z,13.20
2022-10-28T23:38:29.375Z,13.20
2022-10-28T23:40:59.052Z,13.20
2022-10-28T23:43:29.103Z,13.20
2022-10-28T23:45:57.645Z,13.20
2022-10-28T23:48:27.268Z,13.10
2022-10-28T23:50:56.241Z,13.10
2022-10-28T23:53:24.915Z,13.10
2022-10-28T23:55:53.298Z,13.10
2022-10-28T23:58:23.096Z,13.10
